Time;durP1;ratioP1;P1;durP2;ratioP2;P2;SDS_P1;SDS_P2;PMS_P1;PMS_P2;Temp;Humidity;BMP_temperature;BMP_pressure;BME280_temperature;BME280_humidity;BME280_pressure;Samples;Min_cycle;Max_cycle;Signal;HPM_P1;HPM_P2
2021/07/29 00:01:03;;;;;;;6.20;3.30;;;;;;;23.82;100.00;96284.31;5040658;28;20076;-52
2021/07/29 00:03:31;;;;;;;6.43;3.15;;;;;;;24.07;100.00;96281.41;5038417;28;20076;-49
2021/07/29 00:06:00;;;;;;;8.25;3.40;;;;;;;23.93;100.00;96276.22;5040176;28;20068;-50
2021/07/29 00:08:28;;;;;;;7.43;2.88;;;;;;;24.06;100.00;96271.69;5042718;28;20067;-48
2021/07/29 00:10:58;;;;;;;5.68;2.55;;;;;;;24.05;100.00;96276.22;5044498;28;20088;-50
2021/07/29 00:13:27;;;;;;;10.02;3.28;;;;;;;24.09;100.00;96272.03;5039879;28;20065;-49
2021/07/29 00:15:58;;;;;;;4.38;3.05;;;;;;;23.63;100.00;96276.28;5039093;28;20196;-49
2021/07/29 00:21:20;;;;;;;5.63;3.42;;;;;;;23.40;100.00;96274.38;4993949;28;20072;-54
2021/07/29 00:23:50;;;;;;;9.15;3.20;;;;;;;24.02;100.00;96271.34;5041714;28;20076;-50
2021/07/29 00:26:19;;;;;;;9.27;3.58;;;;;;;23.76;100.00;96279.84;5040207;28;20080;-53
2021/07/29 00:28:48;;;;;;;7.28;3.63;;;;;;;23.43;100.00;96281.16;5037635;28;20069;-49
2021/07/29 00:31:16;;;;;;;10.93;4.00;;;;;;;23.34;100.00;96280.66;5044852;28;20067;-53
2021/07/29 00:33:44;;;;;;;6.22;3.97;;;;;;;23.29;100.00;96272.44;5036537;28;20088;-56
2021/07/29 00:36:20;;;;;;;9.13;4.22;;;;;;;22.71;100.00;96273.00;5037248;28;20547;-51
2021/07/29 00:38:49;;;;;;;8.73;3.42;;;;;;;23.30;100.00;96268.72;5035166;28;20060;-55
2021/07/29 00:41:18;;;;;;;10.52;3.60;;;;;;;23.42;100.00;96263.38;5045251;28;20490;-54
2021/07/29 00:43:47;;;;;;;6.68;3.80;;;;;;;23.74;100.00;96269.28;5043397;28;20099;-53
2021/07/29 00:46:16;;;;;;;8.52;3.35;;;;;;;23.75;100.00;96267.44;5031975;28;20068;-55
2021/07/29 00:48:44;;;;;;;4.25;3.47;;;;;;;23.36;100.00;96262.41;5040600;28;20069;-57
2021/07/29 00:51:13;;;;;;;10.25;3.65;;;;;;;23.66;100.00;96259.66;5036987;28;20064;-52
2021/07/29 00:53:41;;;;;;;4.82;3.60;;;;;;;23.58;100.00;96267.28;5039410;28;20503;-53
2021/07/29 00:56:10;;;;;;;6.88;3.65;;;;;;;23.87;100.00;96262.88;5041995;28;20080;-53
2021/07/29 00:58:40;;;;;;;8.45;3.67;;;;;;;23.53;100.00;96262.56;5045425;28;20084;-53
2021/07/29 01:01:08;;;;;;;11.52;3.75;;;;;;;23.50;100.00;96267.59;5040844;28;20068;-53
2021/07/29 01:03:37;;;;;;;9.85;3.47;;;;;;;23.29;100.00;96267.06;5025279;28;20056;-53
2021/07/29 01:06:05;;;;;;;9.45;3.90;;;;;;;24.06;100.00;96268.97;5036124;28;20092;-50
2021/07/29 01:08:34;;;;;;;8.45;3.60;;;;;;;23.75;100.00;96264.75;5036496;28;20064;-50
2021/07/29 01:11:02;;;;;;;10.40;3.60;;;;;;;23.43;100.00;96259.63;5041587;28;20112;-55
2021/07/29 01:13:31;;;;;;;6.40;3.40;;;;;;;22.35;100.00;96244.28;5042240;28;21347;-53
2021/07/29 01:16:00;;;;;;;10.52;3.50;;;;;;;21.35;100.00;96233.63;5035199;28;20058;-52
2021/07/29 01:18:29;;;;;;;5.35;3.80;;;;;;;21.51;100.00;96243.81;5040202;28;20064;-51
2021/07/29 01:20:58;;;;;;;6.95;3.60;;;;;;;22.77;100.00;96245.22;5035159;28;20079;-53
2021/07/29 01:23:27;;;;;;;6.80;3.50;;;;;;;23.51;100.00;96253.09;5035082;28;20519;-53
2021/07/29 01:25:55;;;;;;;8.32;3.72;;;;;;;23.06;100.00;96251.69;5040884;28;20084;-53
2021/07/29 01:28:24;;;;;;;8.63;4.03;;;;;;;23.53;100.00;96251.78;5040064;28;20072;-53
2021/07/29 01:30:52;;;;;;;10.63;3.85;;;;;;;23.57;100.00;96252.16;5039291;28;20463;-55
2021/07/29 01:33:20;;;;;;;7.65;3.70;;;;;;;23.02;100.00;96253.19;5031415;28;20068;-55
2021/07/29 01:35:49;;;;;;;9.85;3.55;;;;;;;22.99;100.00;96253.66;5038779;28;20060;-53
2021/07/29 01:38:18;;;;;;;9.57;4.25;;;;;;;23.15;100.00;96257.56;5043035;28;20084;-54
2021/07/29 01:40:47;;;;;;;6.47;4.10;;;;;;;23.19;100.00;96259.56;5032733;28;20099;-53
2021/07/29 01:43:15;;;;;;;5.30;3.75;;;;;;;23.29;100.00;96255.50;5039772;28;20117;-47
2021/07/29 01:45:45;;;;;;;7.25;4.45;;;;;;;22.97;100.00;96253.88;5040931;28;20084;-52
2021/07/29 01:48:13;;;;;;;8.77;4.43;;;;;;;22.98;100.00;96258.19;5038205;28;20064;-51
2021/07/29 01:50:43;;;;;;;7.03;4.15;;;;;;;23.29;100.00;96258.19;5048455;28;20077;-51
2021/07/29 01:53:11;;;;;;;9.35;4.43;;;;;;;23.59;100.00;96256.25;5043275;28;20081;-51
2021/07/29 01:55:42;;;;;;;11.65;4.57;;;;;;;23.69;100.00;96256.53;5040275;28;20064;-50
2021/07/29 01:58:10;;;;;;;;;;;;;;;23.17;100.00;96252.78;5035486;28;20072;-50
2021/07/29 02:00:39;;;;;;;12.50;4.50;;;;;;;23.57;100.00;96258.38;5043711;28;19960;-53
2021/07/29 02:03:08;;;;;;;7.87;4.33;;;;;;;23.15;100.00;96263.75;5039786;28;20069;-54
2021/07/29 02:05:37;;;;;;;7.22;4.57;;;;;;;22.73;100.00;96260.16;5042468;28;20069;-48
2021/07/29 02:08:06;;;;;;;11.55;4.10;;;;;;;23.37;100.00;96256.00;5045086;28;20081;-50
2021/07/29 02:10:34;;;;;;;9.90;4.43;;;;;;;23.41;100.00;96259.03;5044832;28;20117;-53
2021/07/29 02:13:04;;;;;;;11.60;4.40;;;;;;;22.82;100.00;96263.38;5046986;28;20064;-53
2021/07/29 02:15:32;;;;;;;11.35;4.32;;;;;;;22.93;100.00;96257.25;5044559;28;20073;-54
2021/07/29 02:18:03;;;;;;;12.32;4.15;;;;;;;23.64;100.00;96261.78;5045391;28;20084;-51
2021/07/29 02:20:31;;;;;;;11.07;4.63;;;;;;;23.95;100.00;96265.25;5042774;28;20124;-52
2021/07/29 02:22:59;;;;;;;8.05;4.18;;;;;;;23.49;100.00;96268.66;5039432;28;20073;-53
2021/07/29 02:25:28;;;;;;;11.80;4.50;;;;;;;24.18;100.00;96256.31;5040700;28;20490;-53
2021/07/29 02:27:56;;;;;;;12.52;4.57;;;;;;;23.13;100.00;96268.56;5047138;28;20080;-47
2021/07/29 02:30:26;;;;;;;9.60;4.15;;;;;;;23.61;100.00;96266.81;5047106;28;20072;-53
2021/07/29 02:32:54;;;;;;;8.68;4.00;;;;;;;22.88;100.00;96267.81;5042131;28;20079;-52
2021/07/29 02:35:23;;;;;;;15.68;4.40;;;;;;;23.56;100.00;96272.88;5035975;28;20088;-54
2021/07/29 02:37:51;;;;;;;11.70;4.10;;;;;;;23.89;100.00;96271.56;5048549;28;20081;-48
2021/07/29 02:40:19;;;;;;;6.68;3.75;;;;;;;23.62;100.00;96273.81;5036867;28;20080;-50
2021/07/29 02:42:48;;;;;;;10.18;3.97;;;;;;;23.93;100.00;96278.09;5033949;28;20206;-51
2021/07/29 02:45:16;;;;;;;9.50;4.07;;;;;;;24.04;100.00;96279.97;5046012;28;20064;-56
2021/07/29 02:47:46;;;;;;;10.93;3.85;;;;;;;24.01;100.00;96277.75;5039541;28;20068;-53
2021/07/29 02:50:14;;;;;;;12.05;4.25;;;;;;;24.00;100.00;96280.69;5040646;28;20085;-55
2021/07/29 02:52:43;;;;;;;7.20;3.75;;;;;;;23.93;100.00;96278.94;5042737;28;20080;-55
2021/07/29 02:55:11;;;;;;;9.27;4.10;;;;;;;23.62;100.00;96271.94;5047241;28;20064;-56
2021/07/29 02:57:40;;;;;;;10.98;3.75;;;;;;;24.44;100.00;96273.09;5043278;28;20064;-56
2021/07/29 03:00:09;;;;;;;8.80;3.88;;;;;;;24.41;100.00;96268.97;5039228;28;20068;-52
2021/07/29 03:02:37;;;;;;;9.43;3.90;;;;;;;24.95;100.00;96268.72;5040306;28;20068;-55
2021/07/29 03:05:09;;;;;;;15.85;4.25;;;;;;;24.61;100.00;96272.13;5043418;28;20068;-56
2021/07/29 03:07:37;;;;;;;8.73;3.42;;;;;;;25.02;100.00;96274.81;5039193;28;20504;-53
2021/07/29 03:10:06;;;;;;;5.70;3.67;;;;;;;24.89;100.00;96269.69;5039880;28;20079;-52
2021/07/29 03:12:34;;;;;;;14.45;3.83;;;;;;;25.25;100.00;96272.03;5045507;28;20079;-52
2021/07/29 03:15:03;;;;;;;8.63;4.05;;;;;;;24.90;100.00;96266.75;5038183;28;20076;-50
2021/07/29 03:17:31;;;;;;;6.78;3.60;;;;;;;25.35;100.00;96274.09;5041079;28;20061;-55
2021/07/29 03:20:00;;;;;;;8.38;3.47;;;;;;;25.22;100.00;96279.78;5042078;28;20154;-56
2021/07/29 03:22:30;;;;;;;11.65;4.22;;;;;;;25.03;100.00;96279.16;5043386;28;20072;-55
2021/07/29 03:24:59;;;;;;;6.43;4.03;;;;;;;24.76;100.00;96281.56;5045953;28;20072;-53
2021/07/29 03:27:27;;;;;;;6.40;3.85;;;;;;;25.24;100.00;96277.69;5045271;28;20065;-54
2021/07/29 03:29:56;;;;;;;7.88;3.83;;;;;;;24.62;100.00;96281.03;5041774;28;20076;-54
2021/07/29 03:32:24;;;;;;;8.77;4.10;;;;;;;24.42;100.00;96281.41;5044530;28;20061;-55
2021/07/29 03:34:52;;;;;;;5.80;3.55;;;;;;;24.38;100.00;96285.59;5037797;28;20091;-49
2021/07/29 03:37:21;;;;;;;6.95;4.18;;;;;;;24.89;100.00;96277.78;5038263;28;20073;-53
2021/07/29 03:39:51;;;;;;;9.68;4.50;;;;;;;25.27;100.00;96277.19;5040466;28;20072;-50
2021/07/29 03:42:22;;;;;;;5.70;3.95;;;;;;;24.27;100.00;96281.84;5036549;28;20518;-51
2021/07/29 03:44:50;;;;;;;5.97;3.83;;;;;;;25.16;100.00;96280.78;5033396;28;20577;-49
2021/07/29 03:47:19;;;;;;;8.05;3.90;;;;;;;24.62;100.00;96289.09;5042107;28;20092;-55
2021/07/29 03:49:47;;;;;;;10.07;4.30;;;;;;;25.15;100.00;96282.63;5042413;28;20092;-54
2021/07/29 03:52:16;;;;;;;7.47;4.20;;;;;;;24.80;100.00;96285.44;5036505;28;20099;-52
2021/07/29 03:54:44;;;;;;;7.00;4.18;;;;;;;25.28;100.00;96281.53;5042678;28;20079;-50
2021/07/29 03:57:14;;;;;;;5.38;4.10;;;;;;;25.44;100.00;96282.63;5045100;28;20542;-53
2021/07/29 03:59:42;;;;;;;6.68;3.85;;;;;;;25.32;100.00;96280.78;5040461;28;20068;-56
2021/07/29 04:02:11;;;;;;;4.93;3.50;;;;;;;25.14;100.00;96285.59;5038989;28;20084;-56
2021/07/29 04:04:40;;;;;;;9.18;3.97;;;;;;;25.37;100.00;96290.88;5044041;28;20539;-51
2021/07/29 04:07:08;;;;;;;5.50;3.88;;;;;;;25.73;100.00;96281.50;5040805;28;20442;-51
2021/07/29 04:09:37;;;;;;;5.55;4.13;;;;;;;25.33;100.00;96277.03;5036697;28;20467;-55
2021/07/29 04:12:06;;;;;;;8.25;3.90;;;;;;;25.52;100.00;96284.91;5039822;28;20061;-52
2021/07/29 04:14:36;;;;;;;5.38;3.58;;;;;;;25.52;100.00;96282.22;5039991;28;20065;-49
2021/07/29 04:17:05;;;;;;;9.40;3.72;;;;;;;24.82;100.00;96289.53;5035784;28;20159;-54
2021/07/29 04:19:33;;;;;;;5.38;3.80;;;;;;;25.82;100.00;96284.66;5040820;28;20083;-56
2021/07/29 04:22:02;;;;;;;6.57;3.90;;;;;;;25.34;100.00;96289.47;5046461;28;20061;-58
2021/07/29 04:24:31;;;;;;;7.32;3.55;;;;;;;26.27;100.00;96284.53;5041027;28;20076;-53
2021/07/29 04:27:01;;;;;;;7.50;3.85;;;;;;;25.92;100.00;96284.81;5035550;28;20523;-56
2021/07/29 04:29:31;;;;;;;6.10;3.45;;;;;;;25.20;100.00;96281.94;5033427;28;20061;-53
2021/07/29 04:32:02;;;;;;;7.32;3.45;;;;;;;25.89;100.00;96274.50;5039105;28;20089;-55
2021/07/29 04:34:31;;;;;;;4.85;3.50;;;;;;;25.34;100.00;96288.66;5035881;28;20493;-55
2021/07/29 04:36:59;;;;;;;6.00;3.60;;;;;;;25.59;100.00;96285.59;5039369;28;20068;-56
2021/07/29 04:39:30;;;;;;;6.03;3.33;;;;;;;25.26;100.00;96287.19;5038417;28;20073;-55
2021/07/29 04:41:58;;;;;;;8.38;3.70;;;;;;;26.16;100.00;96288.16;5039507;28;20076;-55
2021/07/29 04:44:26;;;;;;;6.82;3.80;;;;;;;26.24;100.00;96286.91;5044085;28;20060;-53
2021/07/29 04:46:55;;;;;;;6.55;3.33;;;;;;;25.19;100.00;96291.06;5040291;28;20445;-56
2021/07/29 04:49:24;;;;;;;8.80;3.35;;;;;;;26.23;100.00;96288.81;5040564;28;20069;-56
2021/07/29 04:51:53;;;;;;;8.52;3.60;;;;;;;27.51;90.36;96289.59;5040342;28;20479;-54
2021/07/29 04:54:21;;;;;;;5.00;3.08;;;;;;;26.23;100.00;96291.50;5035626;28;20075;-57
2021/07/29 04:56:49;;;;;;;10.32;3.08;;;;;;;25.96;100.00;96298.66;5046565;28;20063;-54
2021/07/29 04:59:19;;;;;;;6.13;3.28;;;;;;;25.36;100.00;96301.91;5040123;28;20088;-53
2021/07/29 05:01:47;;;;;;;5.95;3.20;;;;;;;25.89;100.00;96296.13;5043263;28;20077;-50
2021/07/29 05:04:16;;;;;;;4.63;2.80;;;;;;;26.66;100.00;96291.84;5041515;28;20073;-57
2021/07/29 05:06:46;;;;;;;5.25;2.90;;;;;;;26.90;97.84;96290.53;5036290;28;20072;-52
2021/07/29 05:09:14;;;;;;;6.35;2.78;;;;;;;26.90;95.50;96285.13;5040156;28;20065;-50
2021/07/29 05:11:43;;;;;;;6.40;2.90;;;;;;;26.59;97.24;96288.50;5038347;28;20069;-56
2021/07/29 05:14:11;;;;;;;4.38;3.40;;;;;;;27.49;90.55;96283.59;5036481;28;20111;-55
2021/07/29 05:16:39;;;;;;;5.47;3.35;;;;;;;28.70;75.98;96285.66;5038023;28;20073;-56
2021/07/29 05:19:08;;;;;;;4.30;2.85;;;;;;;29.69;67.34;96283.78;5038858;28;20067;-52
2021/07/29 05:21:36;;;;;;;18.33;3.42;;;;;;;30.26;60.52;96288.16;5046586;28;20068;-55
2021/07/29 05:24:06;;;;;;;11.52;3.28;;;;;;;31.11;55.64;96286.53;5041528;28;20518;-55
2021/07/29 05:26:35;;;;;;;;;;;;;;;32.03;50.54;96286.00;5038936;28;20057;-53
2021/07/29 05:29:03;;;;;;;6.10;3.00;;;;;;;32.42;49.00;96287.84;5035164;28;19967;-56
2021/07/29 05:31:31;;;;;;;6.60;2.60;;;;;;;31.16;52.43;96284.63;5040231;28;20084;-55
2021/07/29 05:34:00;;;;;;;5.20;2.78;;;;;;;30.26;57.70;96293.59;5039566;28;20065;-51
2021/07/29 05:36:28;;;;;;;3.75;2.38;;;;;;;31.31;52.79;96296.53;5040246;28;20527;-54
2021/07/29 05:38:58;;;;;;;4.57;2.50;;;;;;;30.10;60.10;96296.56;5036389;28;20483;-54
2021/07/29 05:41:28;;;;;;;8.88;2.80;;;;;;;29.84;64.28;96302.03;5044455;28;20060;-56
2021/07/29 05:43:56;;;;;;;2.78;2.35;;;;;;;29.27;72.22;96301.06;5036814;28;20091;-58
2021/07/29 05:46:24;;;;;;;3.88;2.38;;;;;;;28.96;72.82;96302.84;5031222;28;20060;-53
2021/07/29 05:48:54;;;;;;;2.92;2.38;;;;;;;27.84;78.79;96297.53;5042115;28;20073;-58
2021/07/29 05:51:22;;;;;;;6.28;2.65;;;;;;;29.00;71.94;96295.00;5036621;28;20073;-55
2021/07/29 05:53:50;;;;;;;27.98;4.35;;;;;;;28.98;71.16;96294.44;5044863;28;20064;-56
2021/07/29 05:56:19;;;;;;;16.35;3.47;;;;;;;29.31;70.36;96302.16;5035589;28;20076;-56
2021/07/29 05:58:48;;;;;;;5.13;2.58;;;;;;;28.97;70.20;96301.75;5042131;28;20484;-57
2021/07/29 06:01:17;;;;;;;5.43;2.30;;;;;;;28.15;77.96;96309.41;5038055;28;20124;-56
2021/07/29 06:03:46;;;;;;;7.15;2.83;;;;;;;29.16;72.77;96299.41;5035904;28;20084;-53
2021/07/29 06:06:14;;;;;;;28.30;4.85;;;;;;;27.96;80.33;96299.22;5033547;28;20092;-56
2021/07/29 06:08:43;;;;;;;8.43;2.90;;;;;;;28.54;79.42;96314.59;5040291;28;20064;-57
2021/07/29 06:11:12;;;;;;;9.02;3.05;;;;;;;28.38;82.87;96312.81;5035955;28;20057;-52
2021/07/29 06:13:40;;;;;;;7.72;3.10;;;;;;;28.53;79.22;96315.66;5037371;28;20531;-53
2021/07/29 06:16:10;;;;;;;8.02;3.13;;;;;;;28.85;74.64;96301.97;5037855;28;20578;-57
2021/07/29 06:18:47;;;;;;;15.45;3.90;;;;;;;28.05;85.54;96313.94;5039676;28;20061;-52
2021/07/29 06:21:16;;;;;;;6.80;3.20;;;;;;;28.85;78.21;96301.19;5038438;28;20080;-55
2021/07/29 06:23:44;;;;;;;5.18;3.08;;;;;;;27.89;89.51;96308.41;5030622;28;20550;-53
2021/07/29 06:26:13;;;;;;;6.60;3.30;;;;;;;29.32;75.22;96300.28;5039181;28;20479;-54
2021/07/29 06:28:41;;;;;;;9.45;3.25;;;;;;;29.66;71.65;96300.63;5040795;28;20081;-51
2021/07/29 06:31:11;;;;;;;5.72;3.72;;;;;;;29.06;78.86;96293.94;5037857;28;20054;-53
2021/07/29 06:33:39;;;;;;;6.60;3.58;;;;;;;30.57;63.92;96296.25;5036730;28;20068;-55
2021/07/29 06:36:08;;;;;;;6.63;2.97;;;;;;;30.55;64.30;96294.91;5039991;28;20041;-53
2021/07/29 06:38:37;;;;;;;5.55;3.13;;;;;;;31.21;60.47;96300.13;5045983;28;20068;-55
2021/07/29 06:41:06;;;;;;;10.90;3.30;;;;;;;31.11;61.62;96300.16;5045347;28;20519;-56
2021/07/29 06:43:35;;;;;;;8.20;3.50;;;;;;;29.91;72.25;96302.56;5049034;28;20081;-55
2021/07/29 06:46:04;;;;;;;4.63;3.03;;;;;;;29.77;74.14;96305.00;5043758;28;20065;-52
2021/07/29 06:48:36;;;;;;;4.72;3.00;;;;;;;27.93;87.91;96301.38;5042117;28;20069;-53
2021/07/29 06:51:05;;;;;;;6.28;3.40;;;;;;;29.77;73.09;96302.28;5045187;28;20076;-51
2021/07/29 06:53:35;;;;;;;5.90;3.25;;;;;;;29.86;70.61;96297.13;5045158;28;20084;-58
2021/07/29 06:56:04;;;;;;;5.00;3.40;;;;;;;29.71;75.34;96299.84;5041591;28;20072;-54
2021/07/29 06:58:32;;;;;;;7.53;3.45;;;;;;;30.17;69.93;96295.19;5038906;28;20077;-56
2021/07/29 07:01:02;;;;;;;4.32;3.38;;;;;;;30.11;67.03;96304.47;5043684;28;20084;-53
2021/07/29 07:03:30;;;;;;;5.90;2.92;;;;;;;30.91;63.39;96307.34;5037382;28;20076;-55
2021/07/29 07:06:04;;;;;;;9.48;3.65;;;;;;;30.78;66.56;96307.94;5044223;28;20064;-54
2021/07/29 07:08:32;;;;;;;7.15;3.20;;;;;;;30.12;69.36;96305.28;5044460;28;20072;-54
2021/07/29 07:11:01;;;;;;;5.35;2.80;;;;;;;30.58;64.37;96310.69;5045924;28;20072;-56
2021/07/29 07:13:30;;;;;;;4.97;3.00;;;;;;;32.25;55.47;96308.19;5043718;28;20472;-56
2021/07/29 07:15:58;;;;;;;5.47;3.20;;;;;;;31.81;59.48;96314.50;5041612;28;20071;-57
2021/07/29 07:18:26;;;;;;;5.85;3.10;;;;;;;32.53;51.59;96313.97;5038669;28;20069;-57
2021/07/29 07:21:05;;;;;;;6.93;3.53;;;;;;;32.81;51.44;96306.81;5045418;28;20068;-50
2021/07/29 07:23:34;;;;;;;4.75;3.42;;;;;;;31.47;51.00;96309.00;5039748;28;20547;-56
2021/07/29 07:26:03;;;;;;;4.95;3.40;;;;;;;30.56;53.64;96305.53;5042893;28;20077;-56
2021/07/29 07:28:32;;;;;;;7.03;3.47;;;;;;;29.08;63.67;96305.38;5040780;28;20299;-53
2021/07/29 07:31:00;;;;;;;5.45;3.67;;;;;;;29.40;62.54;96305.19;5039003;28;20073;-56
2021/07/29 07:33:29;;;;;;;3.83;3.38;;;;;;;28.98;65.39;96306.13;5032896;28;20068;-56
2021/07/29 07:35:58;;;;;;;5.40;4.13;;;;;;;29.68;58.67;96305.81;5038248;28;20087;-55
2021/07/29 07:38:28;;;;;;;3.90;3.50;;;;;;;31.51;52.44;96301.09;5042522;28;20060;-53
2021/07/29 07:40:57;;;;;;;5.60;3.72;;;;;;;30.27;59.25;96295.22;5042259;28;20077;-55
2021/07/29 07:43:25;;;;;;;5.57;3.22;;;;;;;31.38;57.19;96297.06;5040542;28;20477;-53
2021/07/29 07:45:53;;;;;;;4.35;3.20;;;;;;;30.50;55.66;96282.94;5036510;28;20577;-54
2021/07/29 07:48:22;;;;;;;5.90;3.83;;;;;;;30.10;57.72;96288.41;5037648;28;20072;-55
2021/07/29 07:50:52;;;;;;;5.55;3.80;;;;;;;30.55;56.01;96293.00;5036591;28;20075;-56
2021/07/29 07:53:24;;;;;;;4.82;3.60;;;;;;;31.99;51.51;96288.50;5032772;28;20097;-51
2021/07/29 07:55:54;;;;;;;5.65;3.50;;;;;;;30.17;61.15;96287.03;5043977;28;20096;-55
2021/07/29 07:58:22;;;;;;;;;;;;;;;30.30;57.49;96284.88;5044472;28;20061;-57
2021/07/29 08:00:50;;;;;;;4.50;3.65;;;;;;;30.68;59.22;96286.97;5040539;28;20339;-53
2021/07/29 08:03:19;;;;;;;7.10;4.10;;;;;;;31.08;60.48;96282.50;5046441;28;20745;-56
2021/07/29 08:05:48;;;;;;;4.45;3.25;;;;;;;31.01;58.70;96284.72;5039442;28;20444;-53
2021/07/29 08:08:16;;;;;;;4.90;3.92;;;;;;;30.56;60.83;96291.06;5046199;28;20072;-52
2021/07/29 08:10:49;;;;;;;5.03;3.60;;;;;;;31.29;61.92;96279.66;5048031;28;20076;-49
2021/07/29 08:13:19;;;;;;;6.65;3.95;;;;;;;31.96;53.60;96280.88;5043128;28;20076;-55
2021/07/29 08:15:48;;;;;;;5.03;3.70;;;;;;;30.74;54.86;96274.97;5043053;28;20061;-55
2021/07/29 08:18:16;;;;;;;4.53;3.50;;;;;;;29.53;60.20;96273.97;5043482;28;20145;-51
2021/07/29 08:20:45;;;;;;;4.57;3.92;;;;;;;29.50;58.51;96272.59;5040932;28;20064;-51
2021/07/29 08:23:13;;;;;;;5.45;3.60;;;;;;;29.08;63.37;96273.59;5038026;28;20084;-54
2021/07/29 08:25:42;;;;;;;4.18;3.40;;;;;;;29.75;58.96;96271.03;5041924;28;20080;-53
2021/07/29 08:28:11;;;;;;;5.07;3.58;;;;;;;29.95;55.36;96257.44;5034739;28;20061;-53
2021/07/29 08:30:40;;;;;;;4.72;3.63;;;;;;;29.21;63.95;96263.31;5044337;28;20072;-53
2021/07/29 08:33:09;;;;;;;7.47;3.85;;;;;;;29.08;60.80;96261.94;5040152;28;20463;-49
2021/07/29 08:35:38;;;;;;;4.85;3.40;;;;;;;28.88;65.56;96268.06;5032139;28;20072;-54
2021/07/29 08:38:06;;;;;;;4.47;3.40;;;;;;;28.96;65.98;96262.13;5042456;28;20060;-51
2021/07/29 08:40:35;;;;;;;4.72;3.72;;;;;;;28.72;65.09;96267.19;5046505;28;20072;-56
2021/07/29 08:43:09;;;;;;;4.25;3.80;;;;;;;28.75;63.43;96260.41;5042504;28;20460;-57
2021/07/29 08:45:44;;;;;;;5.10;3.47;;;;;;;29.41;67.27;96257.09;5031799;28;20080;-53
2021/07/29 08:48:13;;;;;;;5.95;3.78;;;;;;;29.44;67.78;96254.66;5039698;28;20095;-50
2021/07/29 08:50:42;;;;;;;5.05;3.55;;;;;;;29.18;68.53;96261.13;5043740;28;20091;-56
2021/07/29 08:53:11;;;;;;;5.07;3.60;;;;;;;29.95;58.45;96252.00;5029320;28;20535;-56
2021/07/29 08:55:39;;;;;;;4.55;3.58;;;;;;;29.63;59.17;96256.88;5038254;28;20081;-51
2021/07/29 08:58:08;;;;;;;4.30;3.50;;;;;;;29.27;59.36;96254.09;5037389;28;20056;-51
2021/07/29 09:00:36;;;;;;;3.50;3.15;;;;;;;30.08;59.00;96249.81;5032651;28;20073;-49
2021/07/29 09:03:24;;;;;;;4.50;3.58;;;;;;;29.60;54.43;96255.53;5044765;28;20069;-51
2021/07/29 09:06:00;;;;;;;4.70;3.58;;;;;;;31.51;53.09;96241.94;5038367;28;20072;-50
2021/07/29 09:08:29;;;;;;;3.95;3.40;;;;;;;29.06;52.27;96259.47;5038608;28;20067;-53
2021/07/29 09:10:58;;;;;;;4.50;3.42;;;;;;;29.64;54.54;96258.53;5033061;28;20084;-57
2021/07/29 09:13:26;;;;;;;4.05;3.50;;;;;;;29.72;54.85;96250.63;5033974;28;20080;-52
2021/07/29 09:16:11;;;;;;;4.40;3.67;;;;;;;29.92;53.37;96249.81;5043254;28;20061;-56
2021/07/29 09:18:41;;;;;;;5.10;3.63;;;;;;;31.23;46.56;96254.34;5033358;28;20067;-57
2021/07/29 09:21:15;;;;;;;5.95;3.40;;;;;;;29.90;52.47;96259.31;5032215;28;20452;-51
2021/07/29 09:23:43;;;;;;;3.95;3.40;;;;;;;30.24;47.49;96256.88;5032589;28;20046;-56
2021/07/29 09:26:12;;;;;;;4.82;3.72;;;;;;;29.16;52.21;96257.88;5038769;28;20076;-59
2021/07/29 09:28:41;;;;;;;4.68;3.45;;;;;;;29.39;45.25;96254.66;5046346;28;20104;-58
2021/07/29 09:31:20;;;;;;;6.30;3.77;;;;;;;30.68;46.91;96259.75;5038688;28;20068;-52
2021/07/29 09:34:00;;;;;;;7.05;3.63;;;;;;;31.27;43.81;96246.41;5042422;28;20065;-54
2021/07/29 09:36:31;;;;;;;5.28;3.50;;;;;;;30.96;46.30;96249.31;5039812;28;20068;-51
2021/07/29 09:39:22;;;;;;;5.88;3.83;;;;;;;29.92;46.87;96249.81;5037888;28;20067;-54
2021/07/29 09:41:54;;;;;;;;;;;;;;;30.11;43.78;96260.97;5036224;28;20508;-52
2021/07/29 09:44:47;;;;;;;3.28;2.97;;;;;;;30.78;44.35;96249.94;5042100;28;20405;-57
2021/07/29 09:47:17;;;;;;;4.35;3.65;;;;;;;30.65;46.00;96254.03;5020979;28;20079;-58
2021/07/29 09:49:47;;;;;;;;;;;;;;;31.08;43.88;96249.00;5041430;28;20065;-53
2021/07/29 09:52:17;;;;;;;4.57;3.58;;;;;;;30.38;46.84;96248.94;5041784;28;20355;-54
2021/07/29 09:54:47;;;;;;;4.13;3.72;;;;;;;29.15;47.46;96250.78;5031830;28;20073;-52
2021/07/29 09:57:17;;;;;;;5.30;3.53;;;;;;;29.08;50.16;96251.06;5037854;28;20589;-57
2021/07/29 09:59:45;;;;;;;6.13;3.95;;;;;;;30.06;50.71;96244.63;5020111;28;20075;-57
2021/07/29 10:02:15;;;;;;;5.57;4.00;;;;;;;29.26;50.70;96249.75;5035084;28;20073;-57
2021/07/29 10:04:45;;;;;;;5.53;3.80;;;;;;;29.46;49.02;96249.78;5036697;28;20080;-54
2021/07/29 10:07:21;;;;;;;4.43;3.53;;;;;;;29.85;47.96;96245.75;5038416;28;20456;-52
2021/07/29 10:09:52;;;;;;;6.55;3.65;;;;;;;29.96;48.28;96239.19;5038492;28;20071;-53
2021/07/29 10:12:23;;;;;;;5.20;4.00;;;;;;;30.28;50.54;96241.63;5036637;28;20069;-57
2021/07/29 10:14:53;;;;;;;6.75;3.78;;;;;;;29.73;50.50;96235.13;5040523;28;20076;-57
2021/07/29 10:18:01;;;;;;;6.65;3.90;;;;;;;29.59;51.30;96240.28;5023806;28;20107;-54
2021/07/29 10:20:32;;;;;;;4.45;3.83;;;;;;;30.31;50.70;96241.06;5042408;28;20503;-55
2021/07/29 10:23:38;;;;;;;6.55;3.92;;;;;;;31.35;45.46;96232.22;5045465;28;20072;-55
2021/07/29 10:26:10;;;;;;;4.97;3.90;;;;;;;31.25;42.00;96234.97;5033894;28;20639;-53
2021/07/29 10:28:40;;;;;;;5.07;4.13;;;;;;;32.29;41.78;96232.81;5028631;28;20050;-56
2021/07/29 10:31:11;;;;;;;3.83;3.45;;;;;;;30.57;47.93;96221.97;5019175;28;20519;-58
2021/07/29 10:33:42;;;;;;;4.95;4.18;;;;;;;30.35;45.24;96231.28;5039825;28;20084;-54
2021/07/29 10:36:41;;;;;;;4.75;4.25;;;;;;;30.04;45.10;96223.16;5029648;28;20131;-56
2021/07/29 10:39:10;;;;;;;4.63;4.07;;;;;;;31.00;48.64;96225.88;5019146;28;20077;-56
2021/07/29 10:41:52;;;;;;;4.25;3.75;;;;;;;30.76;48.32;96222.19;5032614;28;20068;-56
2021/07/29 10:44:48;;;;;;;6.55;3.75;;;;;;;30.55;49.53;96214.06;5020012;28;20095;-51
2021/07/29 10:47:39;;;;;;;4.25;3.85;;;;;;;30.27;46.76;96218.22;5042917;28;20479;-57
2021/07/29 10:50:16;;;;;;;4.30;3.88;;;;;;;31.31;47.01;96221.03;5047074;28;20660;-54
2021/07/29 10:52:52;;;;;;;5.80;3.97;;;;;;;31.07;45.21;96218.19;5032134;28;20110;-58
2021/07/29 10:55:24;;;;;;;5.40;3.90;;;;;;;31.89;42.35;96218.47;5019812;28;20053;-57
2021/07/29 10:58:03;;;;;;;5.20;3.90;;;;;;;32.01;40.59;96215.38;5025129;28;20045;-55
2021/07/29 11:00:32;;;;;;;5.25;3.78;;;;;;;31.03;43.05;96217.13;5037966;28;20372;-55
2021/07/29 11:03:08;;;;;;;4.20;3.55;;;;;;;31.75;41.64;96206.56;5023575;28;20511;-56
2021/07/29 11:05:44;;;;;;;4.53;4.03;;;;;;;31.23;47.89;96207.22;5027874;28;20449;-58
2021/07/29 11:08:14;;;;;;;4.75;3.80;;;;;;;31.10;45.35;96201.28;5035864;28;20033;-56
2021/07/29 11:10:44;;;;;;;4.73;3.30;;;;;;;31.73;41.05;96203.34;5042004;28;20088;-57
2021/07/29 11:13:16;;;;;;;4.22;3.83;;;;;;;31.98;41.47;96199.56;5042775;28;20120;-58
2021/07/29 11:15:45;;;;;;;4.25;3.85;;;;;;;29.90;45.74;96199.50;5042374;28;20037;-57
2021/07/29 11:18:17;;;;;;;6.22;4.40;;;;;;;30.03;46.94;96202.47;5041640;28;20092;-57
2021/07/29 11:20:49;;;;;;;7.47;4.47;;;;;;;30.20;49.35;96193.22;5021879;28;20061;-52
2021/07/29 11:23:33;;;;;;;5.22;3.90;;;;;;;30.16;48.83;96189.41;5043099;28;20049;-56
2021/07/29 11:26:03;;;;;;;4.65;4.18;;;;;;;30.92;45.91;96191.88;5048314;28;20503;-56
2021/07/29 11:28:34;;;;;;;6.93;4.30;;;;;;;31.87;44.11;96185.22;5037577;28;21406;-49
2021/07/29 11:31:19;;;;;;;7.65;4.47;;;;;;;32.08;41.24;96188.56;5047718;28;20104;-54
2021/07/29 11:33:52;;;;;;;5.55;3.80;;;;;;;32.23;39.07;96190.31;5026850;28;20038;-51
2021/07/29 11:36:21;;;;;;;5.57;4.40;;;;;;;33.18;38.77;96177.69;5030656;28;20072;-54
2021/07/29 11:39:01;;;;;;;4.13;3.72;;;;;;;31.62;44.37;96180.75;5018857;28;20034;-55
2021/07/29 11:41:30;;;;;;;5.53;4.10;;;;;;;31.21;46.37;96180.25;5043486;28;20557;-60
2021/07/29 11:44:03;;;;;;;4.57;3.90;;;;;;;31.18;43.38;96180.84;5047441;28;21091;-53
2021/07/29 11:46:32;;;;;;;4.78;4.15;;;;;;;30.74;44.75;96170.72;5038297;28;21539;-57